createdAt,value
2023-02-23T00:03:57.186Z,21.42
2023-02-23T00:13:51.014Z,20.60
2023-02-23T00:18:54.042Z,14.23
2023-02-23T00:24:11.883Z,19.05
2023-02-23T00:29:13.092Z,20.77
2023-02-23T00:34:10.894Z,22.45
2023-02-23T00:39:25.889Z,22.47
2023-02-23T00:44:23.985Z,24.83
2023-02-23T00:49:22.191Z,20.30
2023-02-23T00:54:20.075Z,21.10
2023-02-23T00:59:17.367Z,24.30
2023-02-23T01:04:14.019Z,25.08
2023-02-23T01:09:14.171Z,26.13
2023-02-23T01:14:10.935Z,24.92
2023-02-23T01:19:08.113Z,25.88
2023-02-23T01:24:05.472Z,23.77
2023-02-23T01:29:08.615Z,22.60
2023-02-23T01:34:06.231Z,24.25
2023-02-23T01:39:06.312Z,25.37
2023-02-23T01:44:08.693Z,25.42
2023-02-23T01:49:08.248Z,25.75
2023-02-23T01:54:09.779Z,25.95
2023-02-23T01:59:08.163Z,26.83
2023-02-23T02:04:05.811Z,26.13
2023-02-23T02:09:08.110Z,26.97
2023-02-23T02:14:33.861Z,27.25
2023-02-23T02:19:37.098Z,28.63
2023-02-23T02:25:12.605Z,27.55
2023-02-23T02:30:18.007Z,30.90
2023-02-23T02:35:48.589Z,29.88
2023-02-23T02:41:13.973Z,30.45
2023-02-23T02:46:23.087Z,29.42
2023-02-23T02:51:23.158Z,28.67
2023-02-23T02:56:23.687Z,29.42
2023-02-23T03:01:39.061Z,28.75
2023-02-23T03:07:02.653Z,31.48
2023-02-23T03:12:40.298Z,33.08
2023-02-23T03:18:05.412Z,32.20
2023-02-23T03:23:33.242Z,32.53
2023-02-23T03:29:15.848Z,32.03
2023-02-23T03:34:47.433Z,32.30
2023-02-23T03:40:25.874Z,33.70
2023-02-23T03:45:44.804Z,31.50
2023-02-23T03:51:07.796Z,30.38
2023-02-23T03:56:24.910Z,34.10
2023-02-23T04:01:40.742Z,34.22
2023-02-23T04:07:00.324Z,34.15
2023-02-23T04:12:24.530Z,30.40
2023-02-23T04:17:24.688Z,33.33
2023-02-23T04:22:22.012Z,29.77
2023-02-23T04:27:18.687Z,32.63
2023-02-23T04:32:18.217Z,29.95
2023-02-23T04:37:15.971Z,33.08
2023-02-23T04:42:12.340Z,35.53
2023-02-23T04:47:08.947Z,34.60
2023-02-23T04:52:05.641Z,32.08
2023-02-23T04:57:02.052Z,30.08
2023-02-23T05:01:58.634Z,37.38
2023-02-23T05:06:55.001Z,33.38
2023-02-23T05:11:51.384Z,33.83
2023-02-23T05:16:48.097Z,33.85
2023-02-23T05:21:44.761Z,33.45
2023-02-23T05:26:41.064Z,29.17
2023-02-23T05:31:37.617Z,28.27
2023-02-23T05:36:34.011Z,28.42
2023-02-23T05:41:30.337Z,26.70
2023-02-23T05:46:27.426Z,34.90
2023-02-23T05:51:24.007Z,31.10
2023-02-23T05:56:21.279Z,31.98
2023-02-23T06:01:18.751Z,33.97
2023-02-23T06:06:16.211Z,35.00
2023-02-23T06:11:12.774Z,40.35
2023-02-23T06:16:09.664Z,40.00
2023-02-23T06:21:06.246Z,37.35
2023-02-23T06:26:02.572Z,39.35
2023-02-23T06:30:59.342Z,38.38
2023-02-23T06:35:55.904Z,35.35
2023-02-23T06:40:52.347Z,31.38
2023-02-23T06:45:48.808Z,33.03
2023-02-23T06:50:45.148Z,30.95
2023-02-23T06:55:41.502Z,36.83
2023-02-23T07:00:42.991Z,36.95
2023-02-23T07:05:39.318Z,32.42
2023-02-23T07:10:35.847Z,36.58
2023-02-23T07:15:32.245Z,38.92
2023-02-23T07:20:28.698Z,40.05
2023-02-23T07:25:25.125Z,39.15
2023-02-23T07:30:26.268Z,36.13
2023-02-23T07:35:22.666Z,35.70
2023-02-23T07:40:19.385Z,37.67
2023-02-23T07:45:17.279Z,41.92
2023-02-23T07:50:13.920Z,38.88
2023-02-23T07:55:11.935Z,39.00
2023-02-23T08:00:09.204Z,42.30
2023-02-23T08:05:06.008Z,40.67
2023-02-23T08:10:02.441Z,38.42
2023-02-23T08:14:58.861Z,40.10
2023-02-23T08:19:55.215Z,43.25
2023-02-23T08:24:51.732Z,43.28
2023-02-23T08:29:48.435Z,47.65
2023-02-23T08:34:45.028Z,51.20
2023-02-23T08:39:43.393Z,49.50
2023-02-23T08:49:36.221Z,49.03
2023-02-23T08:54:32.609Z,51.65
2023-02-23T08:59:29.008Z,53.35
2023-02-23T09:04:25.399Z,53.42
2023-02-23T09:09:21.803Z,56.30
2023-02-23T09:14:18.160Z,56.83
2023-02-23T09:19:14.907Z,60.45
2023-02-23T09:24:11.340Z,55.92
2023-02-23T09:29:07.872Z,62.30
2023-02-23T09:34:04.300Z,61.40
2023-02-23T09:39:01.429Z,61.17
2023-02-23T09:44:19.258Z,62.78
2023-02-23T09:54:24.226Z,62.40
2023-02-23T09:59:21.804Z,63.47
2023-02-23T10:04:28.848Z,64.80
2023-02-23T10:09:31.057Z,63.58
2023-02-23T10:14:45.866Z,62.70
2023-02-23T10:19:57.082Z,61.80
2023-02-23T10:25:00.520Z,54.95
2023-02-23T10:30:01.431Z,55.90
2023-02-23T10:34:58.010Z,54.45
2023-02-23T10:39:54.594Z,54.10
2023-02-23T10:44:50.962Z,52.90
2023-02-23T10:49:52.739Z,49.15
2023-02-23T10:54:51.623Z,51.20
2023-02-23T11:00:02.216Z,50.10
2023-02-23T11:05:00.549Z,50.60
2023-02-23T11:09:58.446Z,48.55
2023-02-23T11:14:57.021Z,45.77
2023-02-23T11:24:56.014Z,44.42
2023-02-23T11:29:55.737Z,46.40
2023-02-23T11:35:15.574Z,42.97
2023-02-23T11:40:34.728Z,40.00
2023-02-23T11:45:38.136Z,40.05
2023-02-23T11:50:36.385Z,40.65
2023-02-23T11:55:36.575Z,38.35
2023-02-23T12:00:33.583Z,39.60
2023-02-23T12:05:32.654Z,38.85
2023-02-23T12:10:31.782Z,41.92
2023-02-23T12:15:42.688Z,38.90
2023-02-23T12:20:43.396Z,36.55
2023-02-23T12:25:48.200Z,39.60
2023-02-23T12:31:00.463Z,40.15
2023-02-23T12:36:02.921Z,39.55
2023-02-23T12:41:13.878Z,40.33
2023-02-23T12:46:20.707Z,38.40
2023-02-23T12:51:43.257Z,40.38
2023-02-23T12:57:13.085Z,36.40
2023-02-23T13:02:09.402Z,36.08
2023-02-23T13:07:22.728Z,35.25
2023-02-23T13:12:40.372Z,35.95
2023-02-23T13:17:39.665Z,32.90
2023-02-23T13:22:57.587Z,29.95
2023-02-23T13:28:00.069Z,28.95
2023-02-23T13:32:56.949Z,29.83
2023-02-23T13:38:23.161Z,31.67
2023-02-23T13:43:34.510Z,29.67
2023-02-23T13:48:55.587Z,30.40
2023-02-23T13:54:01.688Z,27.80
2023-02-23T13:59:03.749Z,26.90
2023-02-23T14:04:02.990Z,26.05
2023-02-23T14:09:08.176Z,24.65
2023-02-23T14:14:05.020Z,24.98
2023-02-23T14:19:06.353Z,21.63
2023-02-23T14:24:19.315Z,19.27
2023-02-23T14:29:15.723Z,21.13
2023-02-23T14:34:13.536Z,20.35
2023-02-23T14:39:18.096Z,21.73
2023-02-23T14:44:36.380Z,20.13
2023-02-23T14:49:38.855Z,17.60
2023-02-23T14:54:40.296Z,18.00
2023-02-23T14:59:39.461Z,19.35
2023-02-23T15:04:38.602Z,17.52
2023-02-23T15:09:42.606Z,17.63
2023-02-23T15:14:40.836Z,16.17
2023-02-23T15:19:39.209Z,16.00
2023-02-23T15:24:44.608Z,15.27
2023-02-23T15:29:41.193Z,16.02
2023-02-23T15:34:37.591Z,16.48
2023-02-23T15:39:40.003Z,14.82
2023-02-23T15:44:44.092Z,13.50
2023-02-23T15:49:42.110Z,13.52
2023-02-23T15:55:01.517Z,13.20
2023-02-23T16:00:00.539Z,14.88
2023-02-23T16:05:14.615Z,13.85
2023-02-23T16:10:28.917Z,16.08
2023-02-23T16:15:33.057Z,17.27
2023-02-23T16:20:34.729Z,18.40
2023-02-23T16:25:33.115Z,19.65
2023-02-23T16:30:32.551Z,22.05
2023-02-23T16:35:40.057Z,21.00
2023-02-23T16:40:36.519Z,19.35
2023-02-23T16:45:33.034Z,20.67
2023-02-23T16:50:30.173Z,22.23
2023-02-23T16:55:28.507Z,24.13
2023-02-23T17:00:29.348Z,20.63
2023-02-23T17:05:27.875Z,22.27
2023-02-23T17:10:35.131Z,23.85
2023-02-23T17:15:37.279Z,24.20
2023-02-23T17:20:33.809Z,24.38
2023-02-23T17:25:30.314Z,22.55
2023-02-23T17:30:28.332Z,22.45
2023-02-23T17:35:25.716Z,19.50
2023-02-23T17:40:31.142Z,19.55
2023-02-23T17:45:28.985Z,19.42
2023-02-23T17:50:27.020Z,14.73
2023-02-23T17:55:24.383Z,19.92
2023-02-23T18:00:21.073Z,18.95
2023-02-23T18:05:17.533Z,20.35
2023-02-23T18:10:14.563Z,18.30
2023-02-23T18:15:10.984Z,20.75
2023-02-23T18:20:07.926Z,20.63
2023-02-23T18:25:04.659Z,22.00
2023-02-23T18:30:00.961Z,23.08
2023-02-23T18:34:57.594Z,20.38
2023-02-23T18:39:55.510Z,22.52
2023-02-23T18:44:51.885Z,21.77
2023-02-23T18:49:48.313Z,21.15
2023-02-23T18:54:45.507Z,21.40
2023-02-23T18:59:41.928Z,20.05
2023-02-23T19:04:39.196Z,21.95
2023-02-23T19:09:39.579Z,20.90
2023-02-23T19:14:48.904Z,22.17
2023-02-23T19:19:45.855Z,22.80
2023-02-23T19:24:42.178Z,23.02
2023-02-23T19:29:38.616Z,23.25
2023-02-23T19:34:35.618Z,23.15
2023-02-23T19:39:33.183Z,23.65
2023-02-23T19:44:29.824Z,23.95
2023-02-23T19:49:26.501Z,24.20
2023-02-23T19:54:25.934Z,23.98
2023-02-23T19:59:22.473Z,23.55
2023-02-23T20:04:18.767Z,23.13
2023-02-23T20:09:15.371Z,13.93
2023-02-23T20:14:12.427Z,7.53
2023-02-23T20:19:08.948Z,5.97
2023-02-23T20:24:05.578Z,8.85
2023-02-23T20:29:03.894Z,7.10
2023-02-23T20:34:03.496Z,7.20
2023-02-23T20:39:00.022Z,6.88
2023-02-23T20:43:56.549Z,7.80
2023-02-23T20:48:52.924Z,6.30
2023-02-23T20:53:49.266Z,9.27
2023-02-23T20:58:46.166Z,8.48
2023-02-23T21:03:42.689Z,7.95
2023-02-23T21:08:42.255Z,7.70
2023-02-23T21:13:39.249Z,6.93
2023-02-23T21:18:35.591Z,8.15
2023-02-23T21:23:33.005Z,7.72
2023-02-23T21:28:29.306Z,7.07
2023-02-23T21:33:25.671Z,6.25
2023-02-23T21:38:23.625Z,6.65
2023-02-23T21:43:20.125Z,8.43
2023-02-23T21:48:16.700Z,6.18
2023-02-23T21:53:13.314Z,6.50
2023-02-23T21:58:09.816Z,6.70
2023-02-23T22:03:06.317Z,7.90
2023-02-23T22:08:02.680Z,6.82
2023-02-23T22:13:00.022Z,7.80
2023-02-23T22:17:56.415Z,5.35
2023-02-23T22:22:52.722Z,5.65
2023-02-23T22:27:49.031Z,4.25
2023-02-23T22:32:45.657Z,4.80
2023-02-23T22:37:42.524Z,4.82
2023-02-23T22:42:38.934Z,6.70
2023-02-23T22:47:35.805Z,4.05
2023-02-23T22:52:34.594Z,5.55
2023-02-23T23:02:32.136Z,5.78
2023-02-23T23:07:30.900Z,5.18
2023-02-23T23:22:24.968Z,3.88
2023-02-23T23:27:21.501Z,4.15
2023-02-23T23:32:19.665Z,4.18
2023-02-23T23:37:18.445Z,5.15
2023-02-23T23:42:14.754Z,4.68
2023-02-23T23:47:11.263Z,4.00
2023-02-23T23:52:08.266Z,4.53
2023-02-23T23:57:05.932Z,3.55
